Time;durP1;ratioP1;P1;durP2;ratioP2;P2;SDS_P1;SDS_P2;PMS_P1;PMS_P2;Temp;Humidity;BMP_temperature;BMP_pressure;BME280_temperature;BME280_humidity;BME280_pressure;Samples;Min_cycle;Max_cycle;Signal;HPM_P1;HPM_P2
2022/09/04 00:00:59;;;;;;;7.93;6.75;;;;;;;;;;6326340;28;20067;-70
2022/09/04 00:04:10;;;;;;;12.68;6.57;;;;;;;;;;6324972;28;20282;-70
2022/09/04 00:07:19;;;;;;;13.25;7.47;;;;;;;;;;6327831;28;20105;-69
2022/09/04 00:10:28;;;;;;;11.82;7.97;;;;;;;;;;6324699;28;20258;-70
2022/09/04 00:13:33;;;;;;;12.10;8.15;;;;;;;;;;6327212;28;20047;-69
2022/09/04 00:16:41;;;;;;;11.77;8.93;;;;;;;;;;6329811;28;20055;-69
2022/09/04 00:19:47;;;;;;;14.18;9.45;;;;;;;;;;6329982;28;20062;-69
2022/09/04 00:22:52;;;;;;;12.82;8.30;;;;;;;;;;6330907;28;20303;-73
2022/09/04 00:26:00;;;;;;;11.02;9.38;;;;;;;;;;6326041;28;20056;-70
2022/09/04 00:29:05;;;;;;;12.02;10.48;;;;;;;;;;6327754;28;20067;-70
2022/09/04 00:32:17;;;;;;;12.88;11.30;;;;;;;;;;6329970;28;20052;-71
2022/09/04 00:35:22;;;;;;;11.85;10.10;;;;;;;;;;6330682;28;20140;-70
2022/09/04 00:38:34;;;;;;;13.57;10.15;;;;;;;;;;6328656;28;20056;-70
2022/09/04 00:41:44;;;;;;;12.10;10.82;;;;;;;;;;6325822;28;20052;-70
2022/09/04 00:44:53;;;;;;;12.27;10.38;;;;;;;;;;6331146;28;20226;-70
2022/09/04 00:48:06;;;;;;;13.95;10.27;;;;;;;;;;6327234;28;20059;-70
2022/09/04 00:51:17;;;;;;;11.82;9.60;;;;;;;;;;6325710;28;20052;-70
2022/09/04 00:54:33;;;;;;;11.15;8.32;;;;;;;;;;6322077;28;20040;-70
2022/09/04 00:58:01;;;;;;;13.52;9.27;;;;;;;;;;6325327;28;20286;-69
2022/09/04 01:01:03;;;;;;;13.98;8.27;;;;;;;;;;6293001;28;20032;-70
2022/09/04 01:04:20;;;;;;;8.48;7.47;;;;;;;;;;6326575;28;20056;-71
2022/09/04 01:07:36;;;;;;;11.98;7.82;;;;;;;;;;6325242;28;20093;-70
2022/09/04 01:10:48;;;;;;;8.88;6.78;;;;;;;;;;6325230;28;20044;-69
2022/09/04 01:13:55;;;;;;;12.25;7.93;;;;;;;;;;6326505;28;20060;-70
2022/09/04 01:17:04;;;;;;;10.10;8.52;;;;;;;;;;6328883;28;20054;-70
2022/09/04 01:20:14;;;;;;;9.18;8.20;;;;;;;;;;6323226;28;20051;-69
2022/09/04 01:23:26;;;;;;;12.55;9.88;;;;;;;;;;6327151;28;20048;-70
2022/09/04 01:26:33;;;;;;;13.77;9.25;;;;;;;;;;6329703;28;20119;-69
2022/09/04 01:29:41;;;;;;;11.63;9.45;;;;;;;;;;6328202;28;20109;-69
2022/09/04 01:32:50;;;;;;;9.95;8.40;;;;;;;;;;6324388;28;20192;-71
2022/09/04 01:35:57;;;;;;;14.85;9.07;;;;;;;;;;6325097;28;20047;-70
2022/09/04 01:39:00;;;;;;;12.18;9.45;;;;;;;;;;6325137;28;20102;-70
2022/09/04 01:42:06;;;;;;;10.35;9.35;;;;;;;;;;6328532;28;20093;-71
2022/09/04 01:45:10;;;;;;;12.18;10.93;;;;;;;;;;6331095;28;20230;-70
2022/09/04 01:48:15;;;;;;;15.57;12.35;;;;;;;;;;6332255;28;20097;-69
2022/09/04 01:51:24;;;;;;;14.75;10.70;;;;;;;;;;6335940;28;20236;-73
2022/09/04 01:54:34;;;;;;;10.57;9.30;;;;;;;;;;6327818;28;20103;-70
2022/09/04 01:57:52;;;;;;;12.55;8.15;;;;;;;;;;6330623;28;20067;-69
2022/09/04 02:00:58;;;;;;;10.23;7.57;;;;;;;;;;6330334;28;20044;-70
2022/09/04 02:04:06;;;;;;;10.35;7.78;;;;;;;;;;6329978;28;20097;-70
2022/09/04 02:07:14;;;;;;;10.73;7.72;;;;;;;;;;6327576;28;20116;-70
2022/09/04 02:10:26;;;;;;;9.27;8.25;;;;;;;;;;6333808;28;20052;-72
2022/09/04 02:13:35;;;;;;;10.05;7.72;;;;;;;;;;6332811;28;20044;-70
2022/09/04 02:16:45;;;;;;;9.65;8.70;;;;;;;;;;6327853;28;20290;-70
2022/09/04 02:20:09;;;;;;;9.98;8.65;;;;;;;;;;6331142;28;20062;-69
2022/09/04 02:23:16;;;;;;;9.35;8.45;;;;;;;;;;6331614;28;20107;-69
2022/09/04 02:26:21;;;;;;;9.35;8.35;;;;;;;;;;6328507;28;20052;-70
2022/09/04 02:29:27;;;;;;;10.63;9.52;;;;;;;;;;6329616;28;20060;-69
2022/09/04 02:32:36;;;;;;;10.80;9.02;;;;;;;;;;6338708;28;20093;-70
2022/09/04 02:35:42;;;;;;;9.82;8.43;;;;;;;;;;6337529;28;20055;-69
2022/09/04 02:38:51;;;;;;;10.93;8.27;;;;;;;;;;6343505;28;20080;-69
2022/09/04 02:42:02;;;;;;;10.93;9.82;;;;;;;;;;6333438;28;20103;-70
2022/09/04 02:45:13;;;;;;;11.60;10.35;;;;;;;;;;6326225;28;20039;-71
2022/09/04 02:48:19;;;;;;;15.70;9.95;;;;;;;;;;6328186;28;21307;-69
2022/09/04 02:51:27;;;;;;;13.00;11.55;;;;;;;;;;6329365;28;20401;-69
2022/09/04 02:54:47;;;;;;;13.93;12.52;;;;;;;;;;6326835;28;20048;-70
2022/09/04 02:57:56;;;;;;;16.08;13.77;;;;;;;;;;6327088;28;20044;-70
2022/09/04 03:01:05;;;;;;;16.13;14.43;;;;;;;;;;6328112;28;20039;-72
2022/09/04 03:04:11;;;;;;;15.38;13.82;;;;;;;;;;6332431;28;21036;-70
2022/09/04 03:07:18;;;;;;;15.50;13.48;;;;;;;;;;6329011;28;20090;-71
2022/09/04 03:10:21;;;;;;;18.35;13.55;;;;;;;;;;6325443;28;20094;-70
2022/09/04 03:13:27;;;;;;;13.82;12.27;;;;;;;;;;6329931;28;20055;-70
2022/09/04 03:16:37;;;;;;;18.33;12.57;;;;;;;;;;6326481;28;20094;-71
2022/09/04 03:19:43;;;;;;;13.45;11.25;;;;;;;;;;6330245;28;20056;-71
2022/09/04 03:22:50;;;;;;;14.32;12.85;;;;;;;;;;6326948;28;20075;-70
2022/09/04 03:26:16;;;;;;;15.25;12.65;;;;;;;;;;6326327;28;20051;-70
2022/09/04 03:29:24;;;;;;;13.55;11.05;;;;;;;;;;6322709;28;20062;-70
2022/09/04 03:32:30;;;;;;;14.23;10.52;;;;;;;;;;6326373;28;20044;-70
2022/09/04 03:35:37;;;;;;;11.45;9.77;;;;;;;;;;6327623;28;20051;-69
2022/09/04 03:38:47;;;;;;;12.27;10.30;;;;;;;;;;6328016;28;20136;-69
2022/09/04 03:41:57;;;;;;;12.00;10.23;;;;;;;;;;6324887;28;20051;-69
2022/09/04 03:45:08;;;;;;;12.15;9.50;;;;;;;;;;6326912;28;20056;-71
2022/09/04 03:48:25;;;;;;;11.55;9.27;;;;;;;;;;6320445;28;20055;-69
2022/09/04 03:51:35;;;;;;;10.05;8.70;;;;;;;;;;6325233;28;20055;-69
2022/09/04 03:54:50;;;;;;;12.70;9.48;;;;;;;;;;6320873;28;20306;-71
2022/09/04 03:58:03;;;;;;;11.77;9.45;;;;;;;;;;6323068;28;20389;-70
2022/09/04 04:01:12;;;;;;;16.25;9.48;;;;;;;;;;6325353;28;20048;-70
2022/09/04 04:04:33;;;;;;;10.80;9.00;;;;;;;;;;6328625;28;20063;-70
2022/09/04 04:07:42;;;;;;;10.27;8.05;;;;;;;;;;6327954;28;20094;-73
2022/09/04 04:10:52;;;;;;;9.50;8.13;;;;;;;;;;6328448;28;20058;-69
2022/09/04 04:14:05;;;;;;;9.25;8.13;;;;;;;;;;6325371;28;20326;-69
2022/09/04 04:17:19;;;;;;;8.32;7.53;;;;;;;;;;6331174;28;20052;-70
2022/09/04 04:20:29;;;;;;;10.30;7.97;;;;;;;;;;6328312;28;20055;-69
2022/09/04 04:23:58;;;;;;;8.00;7.03;;;;;;;;;;6328471;28;20044;-71
2022/09/04 04:27:08;;;;;;;11.75;7.57;;;;;;;;;;6330498;28;20074;-71
2022/09/04 04:30:13;;;;;;;9.15;6.85;;;;;;;;;;6324212;28;20117;-70
2022/09/04 04:33:48;;;;;;;8.50;6.38;;;;;;;;;;6325846;28;20528;-70
2022/09/04 04:36:55;;;;;;;8.77;6.35;;;;;;;;;;6209429;28;20061;-70
2022/09/04 04:40:03;;;;;;;6.97;6.22;;;;;;;;;;6226127;28;20054;-71
2022/09/04 04:43:09;;;;;;;8.70;6.03;;;;;;;;;;6221842;28;20061;-75
2022/09/04 04:46:15;;;;;;;10.68;5.90;;;;;;;;;;6223120;28;20240;-73
2022/09/04 04:49:32;;;;;;;6.30;5.50;;;;;;;;;;6209626;28;20049;-75
2022/09/04 04:52:44;;;;;;;5.80;5.25;;;;;;;;;;6214456;28;20066;-74
2022/09/04 04:55:50;;;;;;;6.55;5.88;;;;;;;;;;6222963;28;20359;-74
2022/09/04 04:59:01;;;;;;;5.97;5.10;;;;;;;;;;6230523;28;20095;-75
2022/09/04 05:02:09;;;;;;;6.85;5.35;;;;;;;;;;6248639;28;20042;-74
2022/09/04 05:05:15;;;;;;;6.90;5.40;;;;;;;;;;6248506;28;20156;-73
2022/09/04 05:08:25;;;;;;;5.65;4.95;;;;;;;;;;6252852;28;20041;-74
2022/09/04 05:11:35;;;;;;;7.68;5.20;;;;;;;;;;6313079;28;20067;-73
2022/09/04 05:14:47;;;;;;;6.47;5.57;;;;;;;;;;6327708;28;20115;-74
2022/09/04 05:17:51;;;;;;;6.75;5.68;;;;;;;;;;6328645;28;20059;-74
2022/09/04 05:20:57;;;;;;;6.90;5.30;;;;;;;;;;6326393;28;20048;-74
2022/09/04 05:24:02;;;;;;;6.68;5.20;;;;;;;;;;6323994;28;20044;-73
2022/09/04 05:27:11;;;;;;;7.07;5.88;;;;;;;;;;6323656;28;20051;-74
2022/09/04 05:30:16;;;;;;;9.90;6.30;;;;;;;;;;6327254;28;20094;-73
2022/09/04 05:33:23;;;;;;;7.13;5.65;;;;;;;;;;6328023;28;20055;-75
2022/09/04 05:36:32;;;;;;;7.88;6.05;;;;;;;;;;6326157;28;20113;-76
2022/09/04 05:39:44;;;;;;;6.57;5.20;;;;;;;;;;6328295;28;20052;-73
2022/09/04 05:43:07;;;;;;;7.18;5.25;;;;;;;;;;6327582;28;20051;-76
2022/09/04 05:46:12;;;;;;;10.15;5.22;;;;;;;;;;6324541;28;20044;-74
2022/09/04 05:49:21;;;;;;;8.35;5.18;;;;;;;;;;6328007;28;20311;-76
2022/09/04 05:52:38;;;;;;;6.20;5.60;;;;;;;;;;6301793;28;20059;-76
2022/09/04 05:55:54;;;;;;;5.82;5.22;;;;;;;;;;6310073;28;20048;-75
2022/09/04 05:59:11;;;;;;;7.07;5.68;;;;;;;;;;6315832;28;20063;-73
2022/09/04 06:02:39;;;;;;;7.50;5.70;;;;;;;;;;6330908;28;20110;-73
2022/09/04 06:05:47;;;;;;;9.15;6.22;;;;;;;;;;6326866;28;20248;-72
2022/09/04 06:09:11;;;;;;;6.40;5.30;;;;;;;;;;6327926;28;20102;-71
2022/09/04 06:12:32;;;;;;;6.80;6.10;;;;;;;;;;6322117;28;20048;-71
2022/09/04 06:15:37;;;;;;;7.97;6.53;;;;;;;;;;6324772;28;20351;-71
2022/09/04 06:18:54;;;;;;;7.53;6.28;;;;;;;;;;6326979;28;20071;-74
2022/09/04 06:22:14;;;;;;;6.70;5.85;;;;;;;;;;6325400;28;20063;-74
2022/09/04 06:25:46;;;;;;;8.57;5.80;;;;;;;;;;6323858;28;20088;-67
2022/09/04 06:29:03;;;;;;;10.52;6.00;;;;;;;;;;6299122;28;20362;-73
2022/09/04 06:32:39;;;;;;;8.85;5.95;;;;;;;;;;6326971;28;20106;-68
2022/09/04 06:35:55;;;;;;;7.40;5.97;;;;;;;;;;6328729;28;20040;-68
2022/09/04 06:39:16;;;;;;;8.55;6.30;;;;;;;;;;6302009;28;20055;-68
2022/09/04 06:42:30;;;;;;;8.88;6.60;;;;;;;;;;6311470;28;20052;-68
2022/09/04 06:45:44;;;;;;;7.40;6.50;;;;;;;;;;6359459;27;20101;-71
2022/09/04 06:48:49;;;;;;;;;;;;;;;;;;6362346;27;20315;-69
2022/09/04 06:52:06;;;;;;;7.45;6.75;;;;;;;;;;6367928;27;20207;-68
2022/09/04 06:55:12;;;;;;;13.77;8.18;;;;;;;;;;6364885;27;20052;-69
2022/09/04 06:58:23;;;;;;;8.85;7.53;;;;;;;;;;6359806;27;20055;-73
2022/09/04 07:01:33;;;;;;;9.93;7.35;;;;;;;;;;6358267;27;20258;-68
2022/09/04 07:04:44;;;;;;;8.25;6.80;;;;;;;;;;6357541;27;20059;-68
2022/09/04 07:07:53;;;;;;;9.23;6.40;;;;;;;;;;6357832;27;20123;-70
2022/09/04 07:11:03;;;;;;;8.93;7.65;;;;;;;;;;6357126;27;20059;-71
2022/09/04 07:14:18;;;;;;;9.82;6.40;;;;;;;;;;6357903;27;20341;-68
2022/09/04 07:17:28;;;;;;;9.32;6.82;;;;;;;;;;6358838;27;20051;-75
2022/09/04 07:20:34;;;;;;;8.02;6.70;;;;;;;;;;6359121;27;20043;-74
2022/09/04 07:23:43;;;;;;;8.85;7.15;;;;;;;;;;6355492;27;20059;-68
2022/09/04 07:26:50;;;;;;;8.80;7.45;;;;;;;;;;6353091;27;20055;-68
2022/09/04 07:29:55;;;;;;;11.32;9.35;;;;;;;;;;6355479;27;20044;-69
2022/09/04 07:33:01;;;;;;;9.95;7.47;;;;;;;;;;6357724;27;20047;-67
2022/09/04 07:36:06;;;;;;;9.15;7.13;;;;;;;;;;6354782;27;20097;-67
2022/09/04 07:39:15;;;;;;;9.52;7.78;;;;;;;;;;6354362;27;20085;-67
2022/09/04 07:42:19;;;;;;;9.48;8.55;;;;;;;;;;6353211;27;20419;-68
2022/09/04 07:45:28;;;;;;;11.85;10.43;;;;;;;;;;6353535;27;20040;-68
2022/09/04 07:48:36;;;;;;;13.35;9.80;;;;;;;;;;6351621;27;20057;-69
2022/09/04 07:51:42;;;;;;;12.10;10.30;;;;;;;;;;6351558;27;20051;-68
2022/09/04 07:54:58;;;;;;;14.32;10.50;;;;;;;;;;6355168;27;20327;-67
2022/09/04 07:58:27;;;;;;;11.15;9.80;;;;;;;;;;6354368;27;20062;-67
2022/09/04 08:01:42;;;;;;;14.43;10.75;;;;;;;;;;6352569;27;20059;-67
2022/09/04 08:05:04;;;;;;;14.95;11.32;;;;;;;;;;6359164;27;20043;-67
2022/09/04 08:08:37;;;;;;;14.70;11.52;;;;;;;;;;6352028;27;20043;-67
2022/09/04 08:12:07;;;;;;;12.13;10.77;;;;;;;;;;6355889;27;20066;-67
2022/09/04 08:15:16;;;;;;;10.10;9.02;;;;;;;;;;6334381;27;20048;-67
2022/09/04 08:18:42;;;;;;;10.48;9.43;;;;;;;;;;6355964;27;20261;-67
2022/09/04 08:21:47;;;;;;;13.45;11.05;;;;;;;;;;6352410;27;20043;-67
2022/09/04 08:25:21;;;;;;;12.85;11.50;;;;;;;;;;6356232;27;20044;-65
2022/09/04 08:28:35;;;;;;;15.75;10.80;;;;;;;;;;6355536;27;20058;-68
2022/09/04 08:31:41;;;;;;;11.50;10.30;;;;;;;;;;6355836;27;20058;-71
2022/09/04 08:34:55;;;;;;;12.43;10.40;;;;;;;;;;6351531;27;20160;-67
2022/09/04 08:38:12;;;;;;;13.13;10.63;;;;;;;;;;6348968;27;20114;-67
2022/09/04 08:41:54;;;;;;;15.02;12.40;;;;;;;;;;6348877;27;20044;-68
2022/09/04 08:45:55;;;;;;;12.02;10.82;;;;;;;;;;6348789;28;20057;-67
2022/09/04 08:49:29;;;;;;;13.00;11.63;;;;;;;;;;6350809;27;20051;-67
2022/09/04 08:52:46;;;;;;;15.15;10.82;;;;;;;;;;6349683;27;20108;-69
2022/09/04 08:55:59;;;;;;;13.50;12.10;;;;;;;;;;6350458;27;20052;-68
2022/09/04 08:59:27;;;;;;;13.52;12.23;;;;;;;;;;6354496;27;20345;-68
2022/09/04 09:02:46;;;;;;;12.52;10.80;;;;;;;;;;6353843;27;20058;-68
2022/09/04 09:06:06;;;;;;;13.25;12.02;;;;;;;;;;6353613;27;20342;-67
2022/09/04 09:09:49;;;;;;;13.13;11.80;;;;;;;;;;6353936;27;20047;-69
2022/09/04 09:13:31;;;;;;;10.48;9.40;;;;;;;;;;6354090;27;20056;-67
2022/09/04 09:16:42;;;;;;;12.33;10.30;;;;;;;;;;6354421;27;20082;-71
2022/09/04 09:19:46;;;;;;;11.40;10.02;;;;;;;;;;6353916;27;20047;-69
2022/09/04 09:23:15;;;;;;;12.60;11.02;;;;;;;;;;6358192;27;20104;-68
2022/09/04 09:26:27;;;;;;;15.35;9.98;;;;;;;;;;6349175;27;20047;-68
2022/09/04 09:30:01;;;;;;;11.73;10.52;;;;;;;;;;6356324;27;20043;-70
2022/09/04 09:33:46;;;;;;;12.00;10.82;;;;;;;;;;6352790;27;20265;-69
2022/09/04 09:37:18;;;;;;;9.40;8.60;;;;;;;;;;6350310;27;20262;-70
2022/09/04 09:40:38;;;;;;;12.57;8.73;;;;;;;;;;6322163;28;20112;-68
2022/09/04 09:44:04;;;;;;;11.38;8.13;;;;;;;;;;6353630;28;20243;-69
2022/09/04 09:47:21;;;;;;;11.88;10.68;;;;;;;;;;6350983;28;20044;-73
2022/09/04 09:50:49;;;;;;;10.25;9.25;;;;;;;;;;6350920;28;20231;-70
2022/09/04 09:54:25;;;;;;;14.60;11.23;;;;;;;;;;6339416;28;20273;-68
2022/09/04 09:57:59;;;;;;;24.38;11.18;;;;;;;;;;6353512;28;20105;-66
2022/09/04 10:01:08;;;;;;;9.90;8.90;;;;;;;;;;6336762;28;20090;-70
2022/09/04 10:04:27;;;;;;;14.52;11.45;;;;;;;;;;6355261;27;20064;-67
2022/09/04 10:07:53;;;;;;;15.65;13.10;;;;;;;;;;6352920;27;20077;-67
2022/09/04 10:11:22;;;;;;;16.15;14.65;;;;;;;;;;6357904;27;20381;-68
2022/09/04 10:15:05;;;;;;;13.10;11.80;;;;;;;;;;6353765;27;20231;-67
2022/09/04 10:18:35;;;;;;;13.32;10.32;;;;;;;;;;6307504;27;20043;-68
2022/09/04 10:22:10;;;;;;;13.02;11.77;;;;;;;;;;6358230;27;20089;-67
2022/09/04 10:25:34;;;;;;;8.27;7.35;;;;;;;;;;6355643;27;20097;-67
2022/09/04 10:28:56;;;;;;;12.52;11.20;;;;;;;;;;6356380;27;20047;-68
2022/09/04 10:32:28;;;;;;;12.20;11.05;;;;;;;;;;6354999;27;20043;-68
2022/09/04 10:35:35;;;;;;;11.98;10.75;;;;;;;;;;6352855;27;20059;-69
2022/09/04 10:42:20;;;;;;;11.93;10.63;;;;;;;;;;6352191;27;20044;-68
2022/09/04 10:45:26;;;;;;;12.35;11.13;;;;;;;;;;6352991;27;20465;-69
2022/09/04 10:49:05;;;;;;;12.85;11.63;;;;;;;;;;6352245;27;20401;-68
2022/09/04 10:52:39;;;;;;;10.40;9.40;;;;;;;;;;6352190;27;20150;-69
2022/09/04 10:56:00;;;;;;;11.07;10.10;;;;;;;;;;6355942;27;20044;-68
2022/09/04 10:59:14;;;;;;;10.13;9.23;;;;;;;;;;6352659;27;20047;-69
2022/09/04 11:02:39;;;;;;;13.13;11.80;;;;;;;;;;6359815;27;20039;-70
2022/09/04 11:05:56;;;;;;;13.30;11.52;;;;;;;;;;6361908;27;20051;-68
2022/09/04 11:09:09;;;;;;;14.38;11.55;;;;;;;;;;6365298;27;20101;-68
2022/09/04 11:12:25;;;;;;;9.85;8.80;;;;;;;;;;6356406;27;20055;-69
2022/09/04 11:15:38;;;;;;;9.75;8.75;;;;;;;;;;6360699;27;20361;-69
2022/09/04 11:19:19;;;;;;;9.63;8.77;;;;;;;;;;6363778;27;20051;-69
2022/09/04 11:23:16;;;;;;;9.70;8.68;;;;;;;;;;6316087;27;20056;-69
2022/09/04 11:26:52;;;;;;;52.83;43.03;;;;;;;;;;6259586;28;20089;-70
2022/09/04 11:30:02;;;;;;;12.70;10.93;;;;;;;;;;6257463;28;20057;-68
2022/09/04 11:33:22;;;;;;;9.00;7.88;;;;;;;;;;6256603;28;20049;-70
2022/09/04 11:36:46;;;;;;;8.20;7.45;;;;;;;;;;6258415;28;20101;-70
2022/09/04 11:40:11;;;;;;;7.05;6.40;;;;;;;;;;6260360;28;20073;-68
2022/09/04 11:43:24;;;;;;;7.80;6.57;;;;;;;;;;6257957;28;20131;-70
2022/09/04 11:46:41;;;;;;;9.68;6.95;;;;;;;;;;6257291;28;20064;-71
2022/09/04 11:49:53;;;;;;;6.70;6.00;;;;;;;;;;6260566;28;20056;-72
2022/09/04 11:53:12;;;;;;;8.07;7.28;;;;;;;;;;6260003;28;20057;-71
2022/09/04 11:56:38;;;;;;;9.43;8.52;;;;;;;;;;6250814;28;20066;-69
2022/09/04 12:00:06;;;;;;;9.13;7.75;;;;;;;;;;6290008;28;20050;-69
2022/09/04 12:03:33;;;;;;;7.30;6.60;;;;;;;;;;6326964;28;20331;-69
2022/09/04 12:06:43;;;;;;;7.68;5.80;;;;;;;;;;6332226;28;20252;-70
2022/09/04 12:09:53;;;;;;;9.27;6.65;;;;;;;;;;6334464;28;21081;-69
2022/09/04 12:13:06;;;;;;;7.63;6.97;;;;;;;;;;6335010;28;20059;-69
2022/09/04 12:16:27;;;;;;;8.07;7.30;;;;;;;;;;6334040;28;20335;-70
2022/09/04 12:20:10;;;;;;;9.43;7.23;;;;;;;;;;6334037;28;20057;-70
2022/09/04 12:23:31;;;;;;;6.78;5.40;;;;;;;;;;6255954;28;20132;-69
2022/09/04 12:27:03;;;;;;;7.78;7.10;;;;;;;;;;6256252;28;20248;-72
2022/09/04 12:30:09;;;;;;;8.10;5.15;;;;;;;;;;6257178;28;20049;-70
2022/09/04 12:33:32;;;;;;;8.80;6.60;;;;;;;;;;6255527;28;20049;-70
2022/09/04 12:37:11;;;;;;;6.00;5.35;;;;;;;;;;6256417;28;20410;-69
2022/09/04 12:40:33;;;;;;;6.78;5.95;;;;;;;;;;6252089;28;20276;-70
2022/09/04 12:43:47;;;;;;;6.78;6.10;;;;;;;;;;6257616;28;20111;-70
2022/09/04 12:47:00;;;;;;;6.35;4.65;;;;;;;;;;6255333;28;20046;-70
2022/09/04 12:50:26;;;;;;;6.90;5.82;;;;;;;;;;6256028;28;20063;-69
2022/09/04 12:53:47;;;;;;;6.45;5.78;;;;;;;;;;6258716;28;20058;-70
2022/09/04 12:57:05;;;;;;;7.18;5.70;;;;;;;;;;6257008;28;20281;-71
2022/09/04 13:00:09;;;;;;;7.00;6.38;;;;;;;;;;6354490;27;20373;-70
2022/09/04 13:03:20;;;;;;;6.88;5.43;;;;;;;;;;6362639;27;20067;-70
2022/09/04 13:06:31;;;;;;;7.32;4.90;;;;;;;;;;6366941;27;20042;-70
2022/09/04 13:09:42;;;;;;;5.50;4.45;;;;;;;;;;6358676;27;20051;-69
2022/09/04 13:12:49;;;;;;;6.65;5.10;;;;;;;;;;6361521;27;20039;-70
2022/09/04 13:15:58;;;;;;;6.45;4.75;;;;;;;;;;6359588;27;20055;-71
2022/09/04 13:19:10;;;;;;;4.82;4.35;;;;;;;;;;6364778;27;20039;-70
2022/09/04 13:22:18;;;;;;;6.15;5.55;;;;;;;;;;6355947;27;20212;-72
2022/09/04 13:25:30;;;;;;;6.68;3.92;;;;;;;;;;6360525;27;20085;-71
2022/09/04 13:28:44;;;;;;;4.40;4.00;;;;;;;;;;6358680;27;20050;-70
2022/09/04 13:32:18;;;;;;;5.00;4.15;;;;;;;;;;6354105;27;20100;-70
2022/09/04 13:35:33;;;;;;;5.30;4.82;;;;;;;;;;6362866;27;20334;-70
2022/09/04 13:38:56;;;;;;;6.18;5.57;;;;;;;;;;6357837;28;20044;-68
2022/09/04 13:42:28;;;;;;;5.50;4.55;;;;;;;;;;6358512;28;20056;-69
2022/09/04 13:45:32;;;;;;;7.15;6.45;;;;;;;;;;6312817;28;20058;-69
2022/09/04 13:48:39;;;;;;;6.00;5.45;;;;;;;;;;6355353;27;20048;-70
2022/09/04 13:51:45;;;;;;;5.18;3.97;;;;;;;;;;6356684;28;20044;-71
2022/09/04 13:54:51;;;;;;;5.40;4.90;;;;;;;;;;6357300;28;20051;-69
2022/09/04 13:58:00;;;;;;;5.90;4.20;;;;;;;;;;6360692;28;20268;-70
2022/09/04 14:01:05;;;;;;;6.80;4.35;;;;;;;;;;6351530;28;20080;-70
2022/09/04 14:04:10;;;;;;;5.40;4.60;;;;;;;;;;6357331;27;20040;-69
2022/09/04 14:07:17;;;;;;;8.52;5.07;;;;;;;;;;6353897;28;20054;-70
2022/09/04 14:10:22;;;;;;;5.78;4.13;;;;;;;;;;6355785;28;20039;-69
2022/09/04 14:13:36;;;;;;;5.47;3.95;;;;;;;;;;6356017;28;20056;-70
2022/09/04 14:16:38;;;;;;;5.00;3.90;;;;;;;;;;6359134;28;20291;-69
2022/09/04 14:19:48;;;;;;;9.18;4.45;;;;;;;;;;6361491;28;20051;-70
2022/09/04 14:22:58;;;;;;;4.70;3.95;;;;;;;;;;6351382;27;20105;-70
2022/09/04 14:26:06;;;;;;;5.78;4.10;;;;;;;;;;6353956;28;20366;-69
2022/09/04 14:29:20;;;;;;;6.85;3.83;;;;;;;;;;6357964;28;20066;-70
2022/09/04 14:32:27;;;;;;;4.38;3.47;;;;;;;;;;6357060;27;20043;-70
2022/09/04 14:35:34;;;;;;;6.07;4.72;;;;;;;;;;6364435;28;20111;-69
2022/09/04 14:39:15;;;;;;;6.82;3.50;;;;;;;;;;6357727;28;20039;-71
2022/09/04 14:42:30;;;;;;;6.93;3.40;;;;;;;;;;6335231;28;20071;-70
2022/09/04 14:45:51;;;;;;;4.00;3.60;;;;;;;;;;6359790;28;20051;-69
2022/09/04 14:49:00;;;;;;;4.07;3.45;;;;;;;;;;6363840;27;20043;-71
2022/09/04 14:52:10;;;;;;;6.90;4.40;;;;;;;;;;6360845;27;20111;-73
2022/09/04 14:55:15;;;;;;;6.05;4.03;;;;;;;;;;6364654;27;20055;-69
2022/09/04 14:58:20;;;;;;;6.95;3.97;;;;;;;;;;6363401;27;20100;-69
2022/09/04 15:01:24;;;;;;;5.20;4.38;;;;;;;;;;6358520;27;20043;-67
2022/09/04 15:04:30;;;;;;;6.13;3.58;;;;;;;;;;6360809;27;20242;-66
2022/09/04 15:07:52;;;;;;;5.78;3.20;;;;;;;;;;6356655;27;20055;-67
2022/09/04 15:11:01;;;;;;;6.30;3.42;;;;;;;;;;6363864;27;20123;-68
2022/09/04 15:14:04;;;;;;;8.40;4.22;;;;;;;;;;6359361;27;20067;-69
2022/09/04 15:17:11;;;;;;;6.22;2.70;;;;;;;;;;6362665;27;20140;-69
2022/09/04 15:20:19;;;;;;;5.38;3.33;;;;;;;;;;6355901;27;20051;-67
2022/09/04 15:23:27;;;;;;;3.05;2.75;;;;;;;;;;6360187;27;20051;-68
2022/09/04 15:26:31;;;;;;;5.43;3.10;;;;;;;;;;6362331;27;20338;-67
2022/09/04 15:29:38;;;;;;;4.93;3.15;;;;;;;;;;6362527;27;20063;-67
2022/09/04 15:32:42;;;;;;;3.28;2.70;;;;;;;;;;6359102;27;20047;-72
2022/09/04 15:35:44;;;;;;;3.28;2.95;;;;;;;;;;6358678;27;20150;-70
2022/09/04 15:38:49;;;;;;;8.85;3.30;;;;;;;;;;6348794;27;20054;-70
2022/09/04 15:41:51;;;;;;;7.10;2.78;;;;;;;;;;6348451;27;20056;-70
2022/09/04 15:44:52;;;;;;;7.55;2.90;;;;;;;;;;6353733;27;20121;-70
2022/09/04 15:48:05;;;;;;;5.90;2.55;;;;;;;;;;6357084;27;20105;-69
2022/09/04 15:51:17;;;;;;;5.13;2.70;;;;;;;;;;6348421;27;20081;-71
2022/09/04 15:54:27;;;;;;;5.43;3.13;;;;;;;;;;6355786;27;20055;-69
2022/09/04 15:57:34;;;;;;;5.65;2.97;;;;;;;;;;6356952;27;20290;-70
2022/09/04 16:00:39;;;;;;;6.95;3.53;;;;;;;;;;6360647;27;20051;-70
2022/09/04 16:03:50;;;;;;;6.50;2.83;;;;;;;;;;6360095;27;20322;-70
2022/09/04 16:06:57;;;;;;;4.35;2.70;;;;;;;;;;6357339;27;20096;-70
2022/09/04 16:10:03;;;;;;;4.35;2.58;;;;;;;;;;6356931;27;20055;-70
2022/09/04 16:13:09;;;;;;;4.78;2.60;;;;;;;;;;6356592;27;20052;-70
2022/09/04 16:16:16;;;;;;;6.03;2.67;;;;;;;;;;6353517;27;20058;-70
2022/09/04 16:19:27;;;;;;;3.63;2.60;;;;;;;;;;6356827;27;20056;-70
2022/09/04 16:22:35;;;;;;;3.00;2.67;;;;;;;;;;6357718;27;20055;-70
2022/09/04 16:25:39;;;;;;;5.18;2.95;;;;;;;;;;6351891;27;20191;-70
2022/09/04 16:28:44;;;;;;;4.65;2.83;;;;;;;;;;6356830;27;20070;-69
2022/09/04 16:31:51;;;;;;;5.32;2.90;;;;;;;;;;6349106;27;20055;-69
2022/09/04 16:34:56;;;;;;;4.03;2.45;;;;;;;;;;6355436;27;20048;-69
2022/09/04 16:38:04;;;;;;;3.70;2.83;;;;;;;;;;6351054;27;20101;-70
2022/09/04 16:41:11;;;;;;;3.17;2.83;;;;;;;;;;6351517;27;20794;-70
2022/09/04 16:44:18;;;;;;;3.30;2.50;;;;;;;;;;6349357;27;20048;-71
2022/09/04 16:47:23;;;;;;;5.72;3.00;;;;;;;;;;6356909;27;20042;-72
2022/09/04 16:50:30;;;;;;;10.10;3.13;;;;;;;;;;6349035;27;20124;-69
2022/09/04 16:53:40;;;;;;;6.07;3.10;;;;;;;;;;6355039;27;20093;-69
2022/09/04 16:56:48;;;;;;;3.70;2.65;;;;;;;;;;6353404;27;20043;-69
2022/09/04 16:59:54;;;;;;;4.47;2.90;;;;;;;;;;6335499;27;20068;-69
2022/09/04 17:03:00;;;;;;;7.32;3.38;;;;;;;;;;6324001;28;20051;-69
2022/09/04 17:06:07;;;;;;;4.03;3.00;;;;;;;;;;6325785;28;20327;-69
2022/09/04 17:09:17;;;;;;;3.55;2.60;;;;;;;;;;6322110;28;20056;-69
2022/09/04 17:12:31;;;;;;;5.03;3.05;;;;;;;;;;6323303;28;20044;-69
2022/09/04 17:15:38;;;;;;;3.22;2.75;;;;;;;;;;6326050;28;20111;-69
2022/09/04 17:18:45;;;;;;;3.58;2.70;;;;;;;;;;6325849;28;20055;-70
2022/09/04 17:25:29;;;;;;;5.07;2.72;;;;;;;;;;6324284;28;20044;-69
2022/09/04 17:28:52;;;;;;;5.97;3.00;;;;;;;;;;6321935;28;20048;-70
2022/09/04 17:31:57;;;;;;;3.47;2.72;;;;;;;;;;6325687;28;20051;-70
2022/09/04 17:35:06;;;;;;;5.10;2.75;;;;;;;;;;6328775;28;20056;-69
2022/09/04 17:38:20;;;;;;;5.25;2.60;;;;;;;;;;6326143;28;20086;-71
2022/09/04 17:41:25;;;;;;;2.85;2.50;;;;;;;;;;6328446;28;20044;-71
2022/09/04 17:44:44;;;;;;;7.32;3.22;;;;;;;;;;6323560;28;20098;-71
2022/09/04 17:47:46;;;;;;;4.78;2.80;;;;;;;;;;6320913;28;20103;-70
2022/09/04 17:50:50;;;;;;;7.75;2.63;;;;;;;;;;6319973;28;20059;-69
2022/09/04 17:53:55;;;;;;;6.47;2.70;;;;;;;;;;6321970;28;20104;-69
2022/09/04 17:56:59;;;;;;;3.72;2.40;;;;;;;;;;6323447;28;20087;-69
2022/09/04 18:00:06;;;;;;;3.55;2.70;;;;;;;;;;6338478;28;20094;-68
2022/09/04 18:03:16;;;;;;;5.60;2.42;;;;;;;;;;6355336;27;20314;-68
2022/09/04 18:06:21;;;;;;;3.10;2.47;;;;;;;;;;6356516;28;20077;-70
2022/09/04 18:09:30;;;;;;;4.93;2.50;;;;;;;;;;6356578;27;20047;-72
2022/09/04 18:12:36;;;;;;;5.72;2.53;;;;;;;;;;6358004;27;20051;-72
2022/09/04 18:15:42;;;;;;;7.20;2.40;;;;;;;;;;6359572;27;20266;-69
2022/09/04 18:18:48;;;;;;;3.63;2.60;;;;;;;;;;6358192;28;20047;-69
2022/09/04 18:21:53;;;;;;;4.70;2.47;;;;;;;;;;6356431;27;20101;-70
2022/09/04 18:24:59;;;;;;;6.40;3.10;;;;;;;;;;6361468;27;20047;-71
2022/09/04 18:28:05;;;;;;;13.00;7.70;;;;;;;;;;6359568;27;20055;-70
2022/09/04 18:31:16;;;;;;;5.82;3.15;;;;;;;;;;6362140;27;20051;-70
2022/09/04 18:34:23;;;;;;;4.15;3.08;;;;;;;;;;6366077;27;20380;-69
2022/09/04 18:37:30;;;;;;;5.00;2.80;;;;;;;;;;6359391;27;20076;-70
2022/09/04 18:40:39;;;;;;;6.45;3.13;;;;;;;;;;6362320;27;20273;-71
2022/09/04 18:43:43;;;;;;;5.25;3.22;;;;;;;;;;6358847;27;20059;-72
2022/09/04 18:46:45;;;;;;;5.45;2.88;;;;;;;;;;6357978;27;20052;-71
2022/09/04 18:49:52;;;;;;;6.00;3.00;;;;;;;;;;6355147;27;20050;-73
2022/09/04 18:52:58;;;;;;;7.53;3.05;;;;;;;;;;6359461;27;20223;-71
2022/09/04 18:56:05;;;;;;;3.67;2.70;;;;;;;;;;6354537;27;20059;-70
2022/09/04 18:59:12;;;;;;;7.30;3.20;;;;;;;;;;6361604;27;20066;-70
2022/09/04 19:02:18;;;;;;;5.93;3.08;;;;;;;;;;6352578;27;20043;-70
2022/09/04 19:05:20;;;;;;;6.82;2.90;;;;;;;;;;6357770;27;20373;-71
2022/09/04 19:08:26;;;;;;;4.50;2.73;;;;;;;;;;6361630;27;20044;-70
2022/09/04 19:11:31;;;;;;;3.63;2.95;;;;;;;;;;6359325;27;20472;-70
2022/09/04 19:14:36;;;;;;;7.55;3.55;;;;;;;;;;6356268;27;20054;-71